sensor_id;sensor_type;location;lat;lon;timestamp;P1;durP1;ratioP1;P2;durP2;ratioP2
22937;SDS011;11634;42.734;23.298;2023-05-07T00:00:41;13.07;;;9.93;;
22937;SDS011;11634;42.734;23.298;2023-05-07T00:03:07;13.68;;;10.38;;
22937;SDS011;11634;42.734;23.298;2023-05-07T00:05:35;14.80;;;10.32;;
22937;SDS011;11634;42.734;23.298;2023-05-07T00:08:03;14.02;;;10.80;;
22937;SDS011;11634;42.734;23.298;2023-05-07T00:10:29;15.43;;;10.65;;
22937;SDS011;11634;42.734;23.298;2023-05-07T00:12:57;12.50;;;10.20;;
22937;SDS011;11634;42.734;23.298;2023-05-07T00:15:23;13.80;;;10.95;;
22937;SDS011;11634;42.734;23.298;2023-05-07T00:17:49;13.85;;;10.63;;
22937;SDS011;11634;42.734;23.298;2023-05-07T00:20:15;14.82;;;10.15;;
22937;SDS011;11634;42.734;23.298;2023-05-07T00:22:40;12.35;;;10.82;;
22937;SDS011;11634;42.734;23.298;2023-05-07T00:25:06;14.48;;;10.48;;
22937;SDS011;11634;42.734;23.298;2023-05-07T00:27:32;13.70;;;10.23;;
22937;SDS011;11634;42.734;23.298;2023-05-07T00:29:58;13.60;;;10.00;;
22937;SDS011;11634;42.734;23.298;2023-05-07T00:32:23;13.38;;;9.90;;
22937;SDS011;11634;42.734;23.298;2023-05-07T00:34:49;13.82;;;10.50;;
22937;SDS011;11634;42.734;23.298;2023-05-07T00:37:18;14.00;;;10.25;;
22937;SDS011;11634;42.734;23.298;2023-05-07T00:39:44;13.35;;;10.35;;
22937;SDS011;11634;42.734;23.298;2023-05-07T00:42:09;14.73;;;10.82;;
22937;SDS011;11634;42.734;23.298;2023-05-07T00:44:35;12.65;;;10.13;;
22937;SDS011;11634;42.734;23.298;2023-05-07T00:47:01;12.60;;;10.07;;
22937;SDS011;11634;42.734;23.298;2023-05-07T00:49:38;11.95;;;10.25;;
22937;SDS011;11634;42.734;23.298;2023-05-07T00:52:07;12.25;;;10.20;;
22937;SDS011;11634;42.734;23.298;2023-05-07T00:54:36;13.65;;;10.48;;
22937;SDS011;11634;42.734;23.298;2023-05-07T00:57:02;14.43;;;10.73;;
22937;SDS011;11634;42.734;23.298;2023-05-07T00:59:30;14.02;;;10.75;;
22937;SDS011;11634;42.734;23.298;2023-05-07T01:01:57;12.68;;;10.48;;
22937;SDS011;11634;42.734;23.298;2023-05-07T01:04:22;11.52;;;10.15;;
22937;SDS011;11634;42.734;23.298;2023-05-07T01:06:48;14.23;;;10.60;;
22937;SDS011;11634;42.734;23.298;2023-05-07T01:09:15;14.75;;;10.60;;
22937;SDS011;11634;42.734;23.298;2023-05-07T01:11:40;17.13;;;12.27;;
22937;SDS011;11634;42.734;23.298;2023-05-07T01:14:08;13.40;;;10.48;;
22937;SDS011;11634;42.734;23.298;2023-05-07T01:16:34;18.27;;;10.60;;
22937;SDS011;11634;42.734;23.298;2023-05-07T01:19:01;12.82;;;9.35;;
22937;SDS011;11634;42.734;23.298;2023-05-07T01:21:27;13.57;;;9.98;;
22937;SDS011;11634;42.734;23.298;2023-05-07T01:23:58;14.00;;;10.13;;
22937;SDS011;11634;42.734;23.298;2023-05-07T01:26:24;13.07;;;9.73;;
22937;SDS011;11634;42.734;23.298;2023-05-07T01:28:56;10.32;;;9.20;;
22937;SDS011;11634;42.734;23.298;2023-05-07T01:31:23;14.32;;;10.52;;
22937;SDS011;11634;42.734;23.298;2023-05-07T01:33:49;13.10;;;9.80;;
22937;SDS011;11634;42.734;23.298;2023-05-07T01:36:17;11.02;;;9.43;;
22937;SDS011;11634;42.734;23.298;2023-05-07T01:38:46;11.20;;;9.60;;
22937;SDS011;11634;42.734;23.298;2023-05-07T01:41:12;12.70;;;10.43;;
22937;SDS011;11634;42.734;23.298;2023-05-07T01:43:39;11.70;;;9.13;;
22937;SDS011;11634;42.734;23.298;2023-05-07T01:46:07;13.30;;;10.23;;
22937;SDS011;11634;42.734;23.298;2023-05-07T01:48:35;14.55;;;10.13;;
22937;SDS011;11634;42.734;23.298;2023-05-07T01:51:01;14.80;;;9.55;;
22937;SDS011;11634;42.734;23.298;2023-05-07T01:53:27;13.10;;;9.40;;
22937;SDS011;11634;42.734;23.298;2023-05-07T01:55:53;10.73;;;9.25;;
22937;SDS011;11634;42.734;23.298;2023-05-07T01:58:21;14.95;;;9.50;;
22937;SDS011;11634;42.734;23.298;2023-05-07T02:00:47;13.77;;;9.73;;
22937;SDS011;11634;42.734;23.298;2023-05-07T02:03:12;11.52;;;9.18;;
22937;SDS011;11634;42.734;23.298;2023-05-07T02:05:45;14.65;;;10.50;;
22937;SDS011;11634;42.734;23.298;2023-05-07T02:08:31;13.18;;;9.27;;
22937;SDS011;11634;42.734;23.298;2023-05-07T02:10:57;10.98;;;9.82;;
22937;SDS011;11634;42.734;23.298;2023-05-07T02:13:24;10.90;;;9.52;;
22937;SDS011;11634;42.734;23.298;2023-05-07T02:15:58;10.93;;;8.68;;
22937;SDS011;11634;42.734;23.298;2023-05-07T02:18:25;10.27;;;9.25;;
22937;SDS011;11634;42.734;23.298;2023-05-07T02:20:51;10.05;;;9.00;;
22937;SDS011;11634;42.734;23.298;2023-05-07T02:23:17;12.02;;;9.60;;
22937;SDS011;11634;42.734;23.298;2023-05-07T02:25:43;13.77;;;10.30;;
22937;SDS011;11634;42.734;23.298;2023-05-07T02:28:08;10.63;;;9.45;;
22937;SDS011;11634;42.734;23.298;2023-05-07T02:30:54;11.10;;;9.90;;
22937;SDS011;11634;42.734;23.298;2023-05-07T02:33:21;12.75;;;9.30;;
22937;SDS011;11634;42.734;23.298;2023-05-07T02:35:47;13.00;;;9.60;;
22937;SDS011;11634;42.734;23.298;2023-05-07T02:38:14;10.38;;;8.95;;
22937;SDS011;11634;42.734;23.298;2023-05-07T02:40:40;12.32;;;10.20;;
22937;SDS011;11634;42.734;23.298;2023-05-07T02:43:08;11.65;;;9.27;;
22937;SDS011;11634;42.734;23.298;2023-05-07T02:45:35;15.65;;;9.95;;
22937;SDS011;11634;42.734;23.298;2023-05-07T02:48:03;12.88;;;9.40;;
22937;SDS011;11634;42.734;23.298;2023-05-07T02:50:31;14.35;;;9.90;;
22937;SDS011;11634;42.734;23.298;2023-05-07T02:52:58;14.48;;;12.25;;
22937;SDS011;11634;42.734;23.298;2023-05-07T02:55:23;18.35;;;15.32;;
22937;SDS011;11634;42.734;23.298;2023-05-07T02:57:49;15.48;;;12.93;;
22937;SDS011;11634;42.734;23.298;2023-05-07T03:00:16;17.80;;;14.60;;
22937;SDS011;11634;42.734;23.298;2023-05-07T03:02:54;13.95;;;11.88;;
22937;SDS011;11634;42.734;23.298;2023-05-07T03:05:21;14.48;;;12.05;;
22937;SDS011;11634;42.734;23.298;2023-05-07T03:07:47;13.07;;;10.18;;
22937;SDS011;11634;42.734;23.298;2023-05-07T03:10:13;13.75;;;10.50;;
22937;SDS011;11634;42.734;23.298;2023-05-07T03:12:39;13.05;;;10.20;;
22937;SDS011;11634;42.734;23.298;2023-05-07T03:15:08;12.38;;;10.52;;
22937;SDS011;11634;42.734;23.298;2023-05-07T03:17:35;11.32;;;9.75;;
22937;SDS011;11634;42.734;23.298;2023-05-07T03:20:01;13.43;;;10.10;;
22937;SDS011;11634;42.734;23.298;2023-05-07T03:22:27;13.75;;;10.57;;
22937;SDS011;11634;42.734;23.298;2023-05-07T03:24:56;13.45;;;10.40;;
22937;SDS011;11634;42.734;23.298;2023-05-07T03:27:25;13.38;;;10.93;;
22937;SDS011;11634;42.734;23.298;2023-05-07T03:29:52;12.43;;;9.55;;
22937;SDS011;11634;42.734;23.298;2023-05-07T03:32:18;14.52;;;9.95;;
22937;SDS011;11634;42.734;23.298;2023-05-07T03:34:44;11.52;;;10.30;;
22937;SDS011;11634;42.734;23.298;2023-05-07T03:37:11;11.23;;;9.85;;
22937;SDS011;11634;42.734;23.298;2023-05-07T03:39:37;11.75;;;9.93;;
22937;SDS011;11634;42.734;23.298;2023-05-07T03:42:03;12.98;;;10.40;;
22937;SDS011;11634;42.734;23.298;2023-05-07T03:44:31;12.55;;;10.27;;
22937;SDS011;11634;42.734;23.298;2023-05-07T03:46:59;10.63;;;9.52;;
22937;SDS011;11634;42.734;23.298;2023-05-07T03:49:24;11.32;;;9.80;;
22937;SDS011;11634;42.734;23.298;2023-05-07T03:51:50;11.77;;;9.40;;
22937;SDS011;11634;42.734;23.298;2023-05-07T03:54:17;9.45;;;8.18;;
22937;SDS011;11634;42.734;23.298;2023-05-07T03:56:45;9.85;;;7.82;;
22937;SDS011;11634;42.734;23.298;2023-05-07T03:59:11;8.63;;;7.72;;
22937;SDS011;11634;42.734;23.298;2023-05-07T04:01:39;8.68;;;7.28;;
22937;SDS011;11634;42.734;23.298;2023-05-07T04:04:05;9.60;;;7.85;;
22937;SDS011;11634;42.734;23.298;2023-05-07T04:06:33;9.90;;;7.85;;
22937;SDS011;11634;42.734;23.298;2023-05-07T04:08:59;11.10;;;7.45;;
22937;SDS011;11634;42.734;23.298;2023-05-07T04:11:26;7.97;;;6.95;;
22937;SDS011;11634;42.734;23.298;2023-05-07T04:13:52;8.48;;;6.90;;
22937;SDS011;11634;42.734;23.298;2023-05-07T04:16:22;8.38;;;6.90;;
22937;SDS011;11634;42.734;23.298;2023-05-07T04:18:48;9.50;;;7.55;;
22937;SDS011;11634;42.734;23.298;2023-05-07T04:21:17;9.15;;;7.28;;
22937;SDS011;11634;42.734;23.298;2023-05-07T04:23:45;10.23;;;7.38;;
22937;SDS011;11634;42.734;23.298;2023-05-07T04:26:14;8.02;;;7.10;;
22937;SDS011;11634;42.734;23.298;2023-05-07T04:28:42;9.38;;;7.85;;
22937;SDS011;11634;42.734;23.298;2023-05-07T04:31:14;11.10;;;7.18;;
22937;SDS011;11634;42.734;23.298;2023-05-07T04:33:40;8.73;;;6.78;;
22937;SDS011;11634;42.734;23.298;2023-05-07T04:36:13;9.02;;;7.55;;
22937;SDS011;11634;42.734;23.298;2023-05-07T04:38:54;10.38;;;6.43;;
22937;SDS011;11634;42.734;23.298;2023-05-07T04:41:49;7.68;;;6.93;;
22937;SDS011;11634;42.734;23.298;2023-05-07T04:44:30;8.65;;;6.97;;
22937;SDS011;11634;42.734;23.298;2023-05-07T04:46:56;8.27;;;7.03;;
22937;SDS011;11634;42.734;23.298;2023-05-07T04:49:23;10.45;;;7.15;;
22937;SDS011;11634;42.734;23.298;2023-05-07T04:51:51;7.70;;;6.72;;
22937;SDS011;11634;42.734;23.298;2023-05-07T04:54:19;7.63;;;6.75;;
22937;SDS011;11634;42.734;23.298;2023-05-07T04:56:45;7.72;;;6.78;;
22937;SDS011;11634;42.734;23.298;2023-05-07T04:59:11;7.45;;;6.68;;
22937;SDS011;11634;42.734;23.298;2023-05-07T05:01:40;10.57;;;6.70;;
22937;SDS011;11634;42.734;23.298;2023-05-07T05:04:06;7.57;;;6.60;;
22937;SDS011;11634;42.734;23.298;2023-05-07T05:06:32;8.35;;;6.95;;
22937;SDS011;11634;42.734;23.298;2023-05-07T05:08:59;8.35;;;6.03;;
22937;SDS011;11634;42.734;23.298;2023-05-07T05:11:27;8.73;;;6.75;;
22937;SDS011;11634;42.734;23.298;2023-05-07T05:13:53;10.07;;;7.55;;
22937;SDS011;11634;42.734;23.298;2023-05-07T05:16:20;7.88;;;7.03;;
22937;SDS011;11634;42.734;23.298;2023-05-07T05:18:47;12.60;;;7.95;;
22937;SDS011;11634;42.734;23.298;2023-05-07T05:21:16;7.95;;;7.15;;
22937;SDS011;11634;42.734;23.298;2023-05-07T05:23:44;10.90;;;7.93;;
22937;SDS011;11634;42.734;23.298;2023-05-07T05:26:11;10.32;;;7.72;;
22937;SDS011;11634;42.734;23.298;2023-05-07T05:28:37;8.48;;;7.47;;
22937;SDS011;11634;42.734;23.298;2023-05-07T05:31:05;10.15;;;8.98;;
22937;SDS011;11634;42.734;23.298;2023-05-07T05:33:35;9.38;;;8.27;;
22937;SDS011;11634;42.734;23.298;2023-05-07T05:36:03;9.77;;;8.50;;
22937;SDS011;11634;42.734;23.298;2023-05-07T05:38:29;13.32;;;8.52;;
22937;SDS011;11634;42.734;23.298;2023-05-07T05:40:56;10.05;;;8.85;;
22937;SDS011;11634;42.734;23.298;2023-05-07T05:43:22;9.90;;;8.52;;
22937;SDS011;11634;42.734;23.298;2023-05-07T05:45:47;10.07;;;8.85;;
22937;SDS011;11634;42.734;23.298;2023-05-07T05:48:13;9.55;;;8.50;;
22937;SDS011;11634;42.734;23.298;2023-05-07T05:50:41;14.32;;;9.38;;
22937;SDS011;11634;42.734;23.298;2023-05-07T05:53:07;12.88;;;9.32;;
22937;SDS011;11634;42.734;23.298;2023-05-07T05:55:33;11.60;;;9.50;;
22937;SDS011;11634;42.734;23.298;2023-05-07T05:58:00;12.70;;;9.65;;
22937;SDS011;11634;42.734;23.298;2023-05-07T06:00:28;12.25;;;9.05;;
22937;SDS011;11634;42.734;23.298;2023-05-07T06:02:58;11.65;;;9.77;;
22937;SDS011;11634;42.734;23.298;2023-05-07T06:05:27;10.73;;;9.48;;
22937;SDS011;11634;42.734;23.298;2023-05-07T06:07:55;13.00;;;9.90;;
22937;SDS011;11634;42.734;23.298;2023-05-07T06:10:21;13.07;;;9.88;;
22937;SDS011;11634;42.734;23.298;2023-05-07T06:12:46;10.95;;;9.63;;
22937;SDS011;11634;42.734;23.298;2023-05-07T06:15:13;12.07;;;9.88;;
22937;SDS011;11634;42.734;23.298;2023-05-07T06:17:40;11.93;;;9.65;;
22937;SDS011;11634;42.734;23.298;2023-05-07T06:20:06;9.68;;;8.75;;
22937;SDS011;11634;42.734;23.298;2023-05-07T06:22:32;12.27;;;10.48;;
22937;SDS011;11634;42.734;23.298;2023-05-07T06:24:59;11.35;;;9.32;;
22937;SDS011;11634;42.734;23.298;2023-05-07T06:27:25;10.15;;;9.05;;
22937;SDS011;11634;42.734;23.298;2023-05-07T06:29:51;11.18;;;9.23;;
22937;SDS011;11634;42.734;23.298;2023-05-07T06:32:17;11.60;;;9.40;;
22937;SDS011;11634;42.734;23.298;2023-05-07T06:34:44;11.55;;;9.60;;
22937;SDS011;11634;42.734;23.298;2023-05-07T06:37:11;10.40;;;9.38;;
22937;SDS011;11634;42.734;23.298;2023-05-07T06:39:49;10.63;;;9.52;;
22937;SDS011;11634;42.734;23.298;2023-05-07T06:42:15;11.43;;;9.45;;
22937;SDS011;11634;42.734;23.298;2023-05-07T06:44:45;10.00;;;9.00;;
22937;SDS011;11634;42.734;23.298;2023-05-07T06:47:12;10.93;;;9.43;;
22937;SDS011;11634;42.734;23.298;2023-05-07T06:49:39;10.93;;;8.77;;
22937;SDS011;11634;42.734;23.298;2023-05-07T06:52:04;13.40;;;8.73;;
22937;SDS011;11634;42.734;23.298;2023-05-07T06:54:30;10.70;;;9.60;;
22937;SDS011;11634;42.734;23.298;2023-05-07T06:56:57;12.52;;;9.75;;
22937;SDS011;11634;42.734;23.298;2023-05-07T06:59:24;10.00;;;8.98;;
22937;SDS011;11634;42.734;23.298;2023-05-07T07:01:51;12.07;;;9.05;;
22937;SDS011;11634;42.734;23.298;2023-05-07T07:04:16;11.38;;;9.70;;
22937;SDS011;11634;42.734;23.298;2023-05-07T07:06:45;10.90;;;9.52;;
22937;SDS011;11634;42.734;23.298;2023-05-07T07:09:12;12.00;;;8.73;;
22937;SDS011;11634;42.734;23.298;2023-05-07T07:11:39;10.35;;;8.98;;
22937;SDS011;11634;42.734;23.298;2023-05-07T07:14:05;9.70;;;8.70;;
22937;SDS011;11634;42.734;23.298;2023-05-07T07:16:35;10.30;;;8.40;;
22937;SDS011;11634;42.734;23.298;2023-05-07T07:19:01;10.35;;;9.02;;
22937;SDS011;11634;42.734;23.298;2023-05-07T07:21:27;9.25;;;8.27;;
22937;SDS011;11634;42.734;23.298;2023-05-07T07:23:53;10.88;;;9.55;;
22937;SDS011;11634;42.734;23.298;2023-05-07T07:26:19;10.23;;;8.88;;
22937;SDS011;11634;42.734;23.298;2023-05-07T07:28:46;11.23;;;8.82;;
22937;SDS011;11634;42.734;23.298;2023-05-07T07:31:16;12.23;;;8.45;;
22937;SDS011;11634;42.734;23.298;2023-05-07T07:33:42;11.88;;;8.90;;
22937;SDS011;11634;42.734;23.298;2023-05-07T07:36:09;11.15;;;9.52;;
22937;SDS011;11634;42.734;23.298;2023-05-07T07:38:35;10.15;;;8.73;;
22937;SDS011;11634;42.734;23.298;2023-05-07T07:41:01;10.80;;;7.93;;
22937;SDS011;11634;42.734;23.298;2023-05-07T07:43:28;9.27;;;7.75;;
22937;SDS011;11634;42.734;23.298;2023-05-07T07:45:54;11.85;;;8.30;;
22937;SDS011;11634;42.734;23.298;2023-05-07T07:48:20;8.70;;;7.72;;
22937;SDS011;11634;42.734;23.298;2023-05-07T07:50:48;10.00;;;7.13;;
22937;SDS011;11634;42.734;23.298;2023-05-07T07:53:16;8.00;;;6.78;;
22937;SDS011;11634;42.734;23.298;2023-05-07T07:55:42;10.32;;;8.25;;
22937;SDS011;11634;42.734;23.298;2023-05-07T07:58:11;9.68;;;7.78;;
22937;SDS011;11634;42.734;23.298;2023-05-07T08:00:37;9.07;;;7.80;;
22937;SDS011;11634;42.734;23.298;2023-05-07T08:03:03;10.60;;;8.20;;
22937;SDS011;11634;42.734;23.298;2023-05-07T08:05:36;9.02;;;7.97;;
22937;SDS011;11634;42.734;23.298;2023-05-07T08:08:06;8.57;;;7.63;;
22937;SDS011;11634;42.734;23.298;2023-05-07T08:10:34;10.48;;;7.65;;
22937;SDS011;11634;42.734;23.298;2023-05-07T08:13:08;8.00;;;6.53;;
22937;SDS011;11634;42.734;23.298;2023-05-07T08:15:36;8.40;;;6.75;;
22937;SDS011;11634;42.734;23.298;2023-05-07T08:18:02;10.27;;;7.03;;
22937;SDS011;11634;42.734;23.298;2023-05-07T08:20:29;8.07;;;7.28;;
22937;SDS011;11634;42.734;23.298;2023-05-07T08:22:56;10.10;;;6.90;;
22937;SDS011;11634;42.734;23.298;2023-05-07T08:25:26;7.35;;;6.60;;
22937;SDS011;11634;42.734;23.298;2023-05-07T08:27:52;8.00;;;7.28;;
22937;SDS011;11634;42.734;23.298;2023-05-07T08:30:18;7.43;;;6.63;;
22937;SDS011;11634;42.734;23.298;2023-05-07T08:32:44;8.52;;;6.25;;
22937;SDS011;11634;42.734;23.298;2023-05-07T08:35:28;8.90;;;6.25;;
22937;SDS011;11634;42.734;23.298;2023-05-07T08:38:04;7.03;;;6.30;;
22937;SDS011;11634;42.734;23.298;2023-05-07T08:40:29;8.70;;;6.47;;
22937;SDS011;11634;42.734;23.298;2023-05-07T08:43:05;6.45;;;5.90;;
22937;SDS011;11634;42.734;23.298;2023-05-07T08:45:36;8.50;;;5.85;;
22937;SDS011;11634;42.734;23.298;2023-05-07T08:48:14;6.05;;;5.30;;
22937;SDS011;11634;42.734;23.298;2023-05-07T08:50:44;8.10;;;5.53;;
22937;SDS011;11634;42.734;23.298;2023-05-07T08:53:10;9.38;;;7.22;;
22937;SDS011;11634;42.734;23.298;2023-05-07T08:55:38;6.78;;;5.13;;
22937;SDS011;11634;42.734;23.298;2023-05-07T08:58:03;6.35;;;5.20;;
22937;SDS011;11634;42.734;23.298;2023-05-07T09:00:31;6.97;;;5.35;;
22937;SDS011;11634;42.734;23.298;2023-05-07T09:03:00;5.40;;;3.65;;
22937;SDS011;11634;42.734;23.298;2023-05-07T09:05:26;5.43;;;4.93;;
22937;SDS011;11634;42.734;23.298;2023-05-07T09:07:52;6.28;;;4.65;;
22937;SDS011;11634;42.734;23.298;2023-05-07T09:10:20;7.13;;;4.28;;
22937;SDS011;11634;42.734;23.298;2023-05-07T09:12:46;5.47;;;4.82;;
22937;SDS011;11634;42.734;23.298;2023-05-07T09:15:14;7.88;;;5.55;;
22937;SDS011;11634;42.734;23.298;2023-05-07T09:17:40;6.03;;;5.15;;
22937;SDS011;11634;42.734;23.298;2023-05-07T09:20:07;4.55;;;4.15;;
22937;SDS011;11634;42.734;23.298;2023-05-07T09:22:33;6.78;;;4.65;;
22937;SDS011;11634;42.734;23.298;2023-05-07T09:25:05;5.35;;;4.00;;
22937;SDS011;11634;42.734;23.298;2023-05-07T09:27:32;5.15;;;3.95;;
22937;SDS011;11634;42.734;23.298;2023-05-07T09:29:58;6.15;;;4.32;;
22937;SDS011;11634;42.734;23.298;2023-05-07T09:32:24;5.28;;;3.67;;
22937;SDS011;11634;42.734;23.298;2023-05-07T09:34:52;5.32;;;3.72;;
22937;SDS011;11634;42.734;23.298;2023-05-07T09:37:21;4.88;;;3.90;;
22937;SDS011;11634;42.734;23.298;2023-05-07T09:39:48;4.20;;;3.55;;
22937;SDS011;11634;42.734;23.298;2023-05-07T09:42:22;5.32;;;3.88;;
22937;SDS011;11634;42.734;23.298;2023-05-07T09:44:55;4.60;;;3.70;;
22937;SDS011;11634;42.734;23.298;2023-05-07T09:47:28;4.60;;;3.97;;
22937;SDS011;11634;42.734;23.298;2023-05-07T09:49:58;4.38;;;3.97;;
22937;SDS011;11634;42.734;23.298;2023-05-07T09:52:27;4.25;;;3.85;;
22937;SDS011;11634;42.734;23.298;2023-05-07T09:55:00;5.00;;;4.50;;
22937;SDS011;11634;42.734;23.298;2023-05-07T09:57:29;5.95;;;3.60;;
22937;SDS011;11634;42.734;23.298;2023-05-07T10:00:01;3.95;;;3.42;;
22937;SDS011;11634;42.734;23.298;2023-05-07T10:02:46;3.17;;;2.97;;
22937;SDS011;11634;42.734;23.298;2023-05-07T10:05:19;3.92;;;3.10;;
22937;SDS011;11634;42.734;23.298;2023-05-07T10:07:52;4.53;;;3.22;;
22937;SDS011;11634;42.734;23.298;2023-05-07T10:10:28;3.63;;;3.10;;
22937;SDS011;11634;42.734;23.298;2023-05-07T10:13:09;3.75;;;3.13;;
22937;SDS011;11634;42.734;23.298;2023-05-07T10:15:38;3.40;;;3.10;;
22937;SDS011;11634;42.734;23.298;2023-05-07T10:18:04;6.20;;;3.08;;
22937;SDS011;11634;42.734;23.298;2023-05-07T10:20:33;4.07;;;2.92;;
22937;SDS011;11634;42.734;23.298;2023-05-07T10:23:00;2.67;;;2.47;;
22937;SDS011;11634;42.734;23.298;2023-05-07T10:25:35;2.97;;;2.47;;
22937;SDS011;11634;42.734;23.298;2023-05-07T10:28:08;3.35;;;2.60;;
22937;SDS011;11634;42.734;23.298;2023-05-07T10:33:47;3.78;;;3.10;;
22937;SDS011;11634;42.734;23.298;2023-05-07T10:36:18;3.75;;;2.72;;
22937;SDS011;11634;42.734;23.298;2023-05-07T10:38:46;2.83;;;2.40;;
22937;SDS011;11634;42.734;23.298;2023-05-07T10:41:12;3.65;;;3.00;;
22937;SDS011;11634;42.734;23.298;2023-05-07T10:43:42;2.42;;;2.22;;
22937;SDS011;11634;42.734;23.298;2023-05-07T10:46:18;2.70;;;2.50;;
22937;SDS011;11634;42.734;23.298;2023-05-07T10:51:40;4.28;;;3.00;;
22937;SDS011;11634;42.734;23.298;2023-05-07T10:56:49;3.35;;;3.05;;
22937;SDS011;11634;42.734;23.298;2023-05-07T11:02:04;3.30;;;3.00;;
22937;SDS011;11634;42.734;23.298;2023-05-07T11:04:41;6.03;;;2.97;;
22937;SDS011;11634;42.734;23.298;2023-05-07T11:07:28;4.30;;;3.90;;
22937;SDS011;11634;42.734;23.298;2023-05-07T11:10:06;6.47;;;3.75;;
22937;SDS011;11634;42.734;23.298;2023-05-07T11:15:37;3.22;;;2.92;;
22937;SDS011;11634;42.734;23.298;2023-05-07T11:18:13;3.03;;;2.72;;
22937;SDS011;11634;42.734;23.298;2023-05-07T11:20:54;4.45;;;2.72;;
22937;SDS011;11634;42.734;23.298;2023-05-07T11:26:28;2.97;;;2.70;;
22937;SDS011;11634;42.734;23.298;2023-05-07T11:29:22;2.60;;;2.38;;
22937;SDS011;11634;42.734;23.298;2023-05-07T11:31:51;5.18;;;2.90;;
22937;SDS011;11634;42.734;23.298;2023-05-07T11:34:22;3.25;;;2.67;;
22937;SDS011;11634;42.734;23.298;2023-05-07T11:36:51;3.03;;;2.35;;
22937;SDS011;11634;42.734;23.298;2023-05-07T11:39:24;2.67;;;2.47;;
22937;SDS011;11634;42.734;23.298;2023-05-07T11:41:51;3.08;;;2.30;;
22937;SDS011;11634;42.734;23.298;2023-05-07T11:44:16;2.63;;;2.38;;
22937;SDS011;11634;42.734;23.298;2023-05-07T11:46:44;4.65;;;2.45;;
22937;SDS011;11634;42.734;23.298;2023-05-07T11:49:10;3.70;;;2.30;;
22937;SDS011;11634;42.734;23.298;2023-05-07T11:51:36;3.28;;;1.95;;
22937;SDS011;11634;42.734;23.298;2023-05-07T11:54:03;3.47;;;2.33;;
22937;SDS011;11634;42.734;23.298;2023-05-07T11:56:29;2.13;;;1.92;;
22937;SDS011;11634;42.734;23.298;2023-05-07T11:58:59;3.03;;;2.20;;
22937;SDS011;11634;42.734;23.298;2023-05-07T12:01:25;2.15;;;1.95;;
22937;SDS011;11634;42.734;23.298;2023-05-07T12:03:51;2.58;;;2.00;;
22937;SDS011;11634;42.734;23.298;2023-05-07T12:06:18;3.03;;;2.13;;
22937;SDS011;11634;42.734;23.298;2023-05-07T12:08:44;2.15;;;1.98;;
22937;SDS011;11634;42.734;23.298;2023-05-07T12:11:21;2.20;;;2.00;;
22937;SDS011;11634;42.734;23.298;2023-05-07T12:13:48;2.17;;;1.98;;
22937;SDS011;11634;42.734;23.298;2023-05-07T12:16:14;2.75;;;1.85;;
22937;SDS011;11634;42.734;23.298;2023-05-07T12:18:40;3.13;;;2.00;;
22937;SDS011;11634;42.734;23.298;2023-05-07T12:21:06;5.68;;;2.20;;
22937;SDS011;11634;42.734;23.298;2023-05-07T12:23:33;2.20;;;2.00;;
22937;SDS011;11634;42.734;23.298;2023-05-07T12:26:00;3.60;;;2.13;;
22937;SDS011;11634;42.734;23.298;2023-05-07T12:28:36;2.20;;;2.00;;
22937;SDS011;11634;42.734;23.298;2023-05-07T12:31:03;2.53;;;2.17;;
22937;SDS011;11634;42.734;23.298;2023-05-07T12:33:30;2.20;;;1.85;;
22937;SDS011;11634;42.734;23.298;2023-05-07T12:35:58;3.10;;;1.80;;
22937;SDS011;11634;42.734;23.298;2023-05-07T12:38:23;6.85;;;2.17;;
22937;SDS011;11634;42.734;23.298;2023-05-07T12:40:50;7.03;;;2.10;;
22937;SDS011;11634;42.734;23.298;2023-05-07T12:43:25;2.35;;;2.15;;
22937;SDS011;11634;42.734;23.298;2023-05-07T12:45:57;3.83;;;2.10;;
22937;SDS011;11634;42.734;23.298;2023-05-07T12:48:25;2.38;;;1.85;;
22937;SDS011;11634;42.734;23.298;2023-05-07T12:51:01;2.47;;;2.13;;
22937;SDS011;11634;42.734;23.298;2023-05-07T12:53:28;2.85;;;1.90;;
22937;SDS011;11634;42.734;23.298;2023-05-07T12:55:58;2.83;;;2.15;;
22937;SDS011;11634;42.734;23.298;2023-05-07T12:58:25;2.75;;;2.15;;
22937;SDS011;11634;42.734;23.298;2023-05-07T13:00:53;2.92;;;2.20;;
22937;SDS011;11634;42.734;23.298;2023-05-07T13:03:27;3.50;;;2.28;;
22937;SDS011;11634;42.734;23.298;2023-05-07T13:06:00;3.28;;;2.15;;
22937;SDS011;11634;42.734;23.298;2023-05-07T13:08:36;2.10;;;1.90;;
22937;SDS011;11634;42.734;23.298;2023-05-07T13:11:06;3.22;;;2.20;;
22937;SDS011;11634;42.734;23.298;2023-05-07T13:13:35;4.53;;;2.17;;
22937;SDS011;11634;42.734;23.298;2023-05-07T13:16:02;4.07;;;1.92;;
22937;SDS011;11634;42.734;23.298;2023-05-07T13:18:29;3.35;;;2.60;;
22937;SDS011;11634;42.734;23.298;2023-05-07T13:20:56;3.25;;;1.90;;
22937;SDS011;11634;42.734;23.298;2023-05-07T13:23:22;2.53;;;2.25;;
22937;SDS011;11634;42.734;23.298;2023-05-07T13:25:48;2.72;;;2.10;;
22937;SDS011;11634;42.734;23.298;2023-05-07T13:28:15;2.05;;;1.85;;
22937;SDS011;11634;42.734;23.298;2023-05-07T13:30:41;3.10;;;2.22;;
22937;SDS011;11634;42.734;23.298;2023-05-07T13:33:08;2.17;;;1.98;;
22937;SDS011;11634;42.734;23.298;2023-05-07T13:35:34;2.97;;;2.10;;
22937;SDS011;11634;42.734;23.298;2023-05-07T13:38:00;2.58;;;2.38;;
22937;SDS011;11634;42.734;23.298;2023-05-07T13:40:26;2.15;;;1.95;;
22937;SDS011;11634;42.734;23.298;2023-05-07T13:42:51;2.33;;;1.90;;
22937;SDS011;11634;42.734;23.298;2023-05-07T13:45:18;2.67;;;2.33;;
22937;SDS011;11634;42.734;23.298;2023-05-07T13:47:47;4.55;;;2.30;;
22937;SDS011;11634;42.734;23.298;2023-05-07T13:50:15;3.28;;;2.08;;
22937;SDS011;11634;42.734;23.298;2023-05-07T13:52:42;3.08;;;2.03;;
22937;SDS011;11634;42.734;23.298;2023-05-07T13:55:08;2.28;;;2.08;;
22937;SDS011;11634;42.734;23.298;2023-05-07T13:57:36;2.83;;;2.13;;
22937;SDS011;11634;42.734;23.298;2023-05-07T14:00:02;2.35;;;2.00;;
22937;SDS011;11634;42.734;23.298;2023-05-07T14:02:40;2.45;;;1.90;;
22937;SDS011;11634;42.734;23.298;2023-05-07T14:05:06;2.55;;;1.98;;
22937;SDS011;11634;42.734;23.298;2023-05-07T14:07:41;2.13;;;1.92;;
22937;SDS011;11634;42.734;23.298;2023-05-07T14:10:08;3.00;;;2.17;;
22937;SDS011;11634;42.734;23.298;2023-05-07T14:12:35;2.42;;;2.20;;
22937;SDS011;11634;42.734;23.298;2023-05-07T14:15:00;3.15;;;2.10;;
22937;SDS011;11634;42.734;23.298;2023-05-07T14:17:26;3.03;;;2.17;;
22937;SDS011;11634;42.734;23.298;2023-05-07T14:19:52;2.20;;;2.00;;
22937;SDS011;11634;42.734;23.298;2023-05-07T14:22:21;5.90;;;2.22;;
22937;SDS011;11634;42.734;23.298;2023-05-07T14:24:47;2.17;;;2.00;;
22937;SDS011;11634;42.734;23.298;2023-05-07T14:27:13;2.45;;;2.20;;
22937;SDS011;11634;42.734;23.298;2023-05-07T14:29:39;2.60;;;2.25;;
22937;SDS011;11634;42.734;23.298;2023-05-07T14:32:05;2.30;;;1.90;;
22937;SDS011;11634;42.734;23.298;2023-05-07T14:34:31;3.15;;;2.10;;
22937;SDS011;11634;42.734;23.298;2023-05-07T14:36:57;2.50;;;2.20;;
22937;SDS011;11634;42.734;23.298;2023-05-07T14:39:24;2.45;;;2.22;;
22937;SDS011;11634;42.734;23.298;2023-05-07T14:41:51;2.55;;;2.13;;
22937;SDS011;11634;42.734;23.298;2023-05-07T14:44:16;2.45;;;2.25;;
22937;SDS011;11634;42.734;23.298;2023-05-07T14:46:42;1.85;;;1.75;;
22937;SDS011;11634;42.734;23.298;2023-05-07T14:49:08;4.03;;;2.42;;